sensor_id;sensor_type;location;lat;lon;timestamp;P1;durP1;ratioP1;P2;durP2;ratioP2
53273;SDS011;39163;52.696;6.758;2022-12-16T00:01:20;59.57;;;31.67;;
53273;SDS011;39163;52.696;6.758;2022-12-16T00:03:48;60.07;;;32.67;;
53273;SDS011;39163;52.696;6.758;2022-12-16T00:06:18;56.57;;;29.73;;
53273;SDS011;39163;52.696;6.758;2022-12-16T00:08:45;57.07;;;31.10;;
53273;SDS011;39163;52.696;6.758;2022-12-16T00:11:11;51.50;;;30.90;;
53273;SDS011;39163;52.696;6.758;2022-12-16T00:13:38;62.90;;;32.57;;
53273;SDS011;39163;52.696;6.758;2022-12-16T00:16:08;60.67;;;30.90;;
53273;SDS011;39163;52.696;6.758;2022-12-16T00:18:35;53.03;;;29.53;;
53273;SDS011;39163;52.696;6.758;2022-12-16T00:21:01;52.57;;;29.77;;
53273;SDS011;39163;52.696;6.758;2022-12-16T00:23:28;56.63;;;29.50;;
53273;SDS011;39163;52.696;6.758;2022-12-16T00:25:55;52.27;;;30.73;;
53273;SDS011;39163;52.696;6.758;2022-12-16T00:28:21;60.43;;;32.37;;
53273;SDS011;39163;52.696;6.758;2022-12-16T00:30:47;63.50;;;33.70;;
53273;SDS011;39163;52.696;6.758;2022-12-16T00:33:14;57.57;;;31.80;;
53273;SDS011;39163;52.696;6.758;2022-12-16T00:35:40;60.33;;;32.77;;
53273;SDS011;39163;52.696;6.758;2022-12-16T00:38:06;64.30;;;31.77;;
53273;SDS011;39163;52.696;6.758;2022-12-16T00:40:32;60.43;;;34.53;;
53273;SDS011;39163;52.696;6.758;2022-12-16T00:42:58;58.10;;;32.43;;
53273;SDS011;39163;52.696;6.758;2022-12-16T00:45:24;60.70;;;33.27;;
53273;SDS011;39163;52.696;6.758;2022-12-16T00:47:49;57.47;;;30.70;;
53273;SDS011;39163;52.696;6.758;2022-12-16T00:50:15;61.67;;;31.30;;
53273;SDS011;39163;52.696;6.758;2022-12-16T00:52:42;60.80;;;32.53;;
53273;SDS011;39163;52.696;6.758;2022-12-16T00:55:09;56.73;;;31.37;;
53273;SDS011;39163;52.696;6.758;2022-12-16T00:57:34;57.50;;;32.97;;
53273;SDS011;39163;52.696;6.758;2022-12-16T01:00:00;59.47;;;31.53;;
53273;SDS011;39163;52.696;6.758;2022-12-16T01:02:30;64.30;;;33.20;;
53273;SDS011;39163;52.696;6.758;2022-12-16T01:04:56;64.13;;;32.33;;
53273;SDS011;39163;52.696;6.758;2022-12-16T01:07:22;55.77;;;30.93;;
53273;SDS011;39163;52.696;6.758;2022-12-16T01:09:47;57.57;;;31.87;;
53273;SDS011;39163;52.696;6.758;2022-12-16T01:12:13;60.50;;;32.00;;
53273;SDS011;39163;52.696;6.758;2022-12-16T01:14:38;61.97;;;31.87;;
53273;SDS011;39163;52.696;6.758;2022-12-16T01:17:04;61.80;;;32.03;;
53273;SDS011;39163;52.696;6.758;2022-12-16T01:19:30;55.53;;;32.30;;
53273;SDS011;39163;52.696;6.758;2022-12-16T01:21:56;58.37;;;31.30;;
53273;SDS011;39163;52.696;6.758;2022-12-16T01:24:21;64.30;;;32.23;;
53273;SDS011;39163;52.696;6.758;2022-12-16T01:26:47;67.20;;;33.40;;
53273;SDS011;39163;52.696;6.758;2022-12-16T01:29:13;62.57;;;31.70;;
53273;SDS011;39163;52.696;6.758;2022-12-16T01:31:39;65.57;;;33.17;;
53273;SDS011;39163;52.696;6.758;2022-12-16T01:34:04;67.70;;;34.20;;
53273;SDS011;39163;52.696;6.758;2022-12-16T01:36:30;58.37;;;31.80;;
53273;SDS011;39163;52.696;6.758;2022-12-16T01:38:56;59.03;;;32.90;;
53273;SDS011;39163;52.696;6.758;2022-12-16T01:41:24;59.93;;;33.03;;
53273;SDS011;39163;52.696;6.758;2022-12-16T01:43:50;63.13;;;32.60;;
53273;SDS011;39163;52.696;6.758;2022-12-16T01:46:20;61.97;;;33.50;;
53273;SDS011;39163;52.696;6.758;2022-12-16T01:54:05;67.77;;;33.43;;
53273;SDS011;39163;52.696;6.758;2022-12-16T01:56:36;67.90;;;34.60;;
53273;SDS011;39163;52.696;6.758;2022-12-16T01:59:05;70.13;;;35.17;;
53273;SDS011;39163;52.696;6.758;2022-12-16T02:01:36;67.63;;;35.07;;
53273;SDS011;39163;52.696;6.758;2022-12-16T02:04:03;65.43;;;34.03;;
53273;SDS011;39163;52.696;6.758;2022-12-16T02:06:29;68.67;;;35.37;;
53273;SDS011;39163;52.696;6.758;2022-12-16T02:08:59;72.17;;;34.23;;
53273;SDS011;39163;52.696;6.758;2022-12-16T02:26:12;72.10;;;35.07;;
53273;SDS011;39163;52.696;6.758;2022-12-16T02:32:10;66.00;;;34.27;;
53273;SDS011;39163;52.696;6.758;2022-12-16T02:34:48;72.72;;;35.80;;
53273;SDS011;39163;52.696;6.758;2022-12-16T02:37:20;73.28;;;35.28;;
53273;SDS011;39163;52.696;6.758;2022-12-16T02:40:20;63.13;;;33.30;;
53273;SDS011;39163;52.696;6.758;2022-12-16T02:42:59;72.03;;;36.10;;
53273;SDS011;39163;52.696;6.758;2022-12-16T02:48:11;72.33;;;34.17;;
53273;SDS011;39163;52.696;6.758;2022-12-16T02:50:44;63.47;;;33.17;;
53273;SDS011;39163;52.696;6.758;2022-12-16T02:53:14;69.20;;;34.97;;
53273;SDS011;39163;52.696;6.758;2022-12-16T02:55:54;68.13;;;35.97;;
53273;SDS011;39163;52.696;6.758;2022-12-16T03:01:56;68.47;;;33.27;;
53273;SDS011;39163;52.696;6.758;2022-12-16T03:04:36;72.30;;;34.27;;
53273;SDS011;39163;52.696;6.758;2022-12-16T03:07:19;72.90;;;35.10;;
53273;SDS011;39163;52.696;6.758;2022-12-16T03:09:52;68.17;;;35.53;;
53273;SDS011;39163;52.696;6.758;2022-12-16T03:12:20;68.00;;;34.93;;
53273;SDS011;39163;52.696;6.758;2022-12-16T03:14:48;70.37;;;35.60;;
53273;SDS011;39163;52.696;6.758;2022-12-16T03:17:17;66.63;;;34.83;;
53273;SDS011;39163;52.696;6.758;2022-12-16T03:19:51;69.63;;;35.77;;
53273;SDS011;39163;52.696;6.758;2022-12-16T03:22:25;68.97;;;34.97;;
53273;SDS011;39163;52.696;6.758;2022-12-16T03:24:53;69.17;;;35.30;;
53273;SDS011;39163;52.696;6.758;2022-12-16T03:27:28;75.33;;;36.23;;
53273;SDS011;39163;52.696;6.758;2022-12-16T03:32:34;66.03;;;34.83;;
53273;SDS011;39163;52.696;6.758;2022-12-16T03:37:39;69.87;;;34.90;;
53273;SDS011;39163;52.696;6.758;2022-12-16T03:40:07;76.20;;;37.37;;
53273;SDS011;39163;52.696;6.758;2022-12-16T03:42:34;64.03;;;33.23;;
53273;SDS011;39163;52.696;6.758;2022-12-16T03:45:01;74.20;;;36.07;;
53273;SDS011;39163;52.696;6.758;2022-12-16T03:47:29;66.77;;;35.00;;
53273;SDS011;39163;52.696;6.758;2022-12-16T03:49:54;79.83;;;38.27;;
53273;SDS011;39163;52.696;6.758;2022-12-16T03:52:20;77.37;;;36.80;;
53273;SDS011;39163;52.696;6.758;2022-12-16T03:54:46;69.13;;;35.30;;
53273;SDS011;39163;52.696;6.758;2022-12-16T03:57:11;71.93;;;35.23;;
53273;SDS011;39163;52.696;6.758;2022-12-16T03:59:37;76.17;;;35.43;;
53273;SDS011;39163;52.696;6.758;2022-12-16T04:02:04;77.53;;;36.30;;
53273;SDS011;39163;52.696;6.758;2022-12-16T04:04:30;66.43;;;34.80;;
53273;SDS011;39163;52.696;6.758;2022-12-16T04:06:55;66.50;;;35.90;;
53273;SDS011;39163;52.696;6.758;2022-12-16T04:12:06;71.67;;;34.47;;
53273;SDS011;39163;52.696;6.758;2022-12-16T04:15:00;65.27;;;34.07;;
53273;SDS011;39163;52.696;6.758;2022-12-16T04:17:45;74.97;;;36.53;;
53273;SDS011;39163;52.696;6.758;2022-12-16T04:20:42;69.70;;;36.23;;
53273;SDS011;39163;52.696;6.758;2022-12-16T04:23:33;73.37;;;36.33;;
53273;SDS011;39163;52.696;6.758;2022-12-16T04:26:18;73.77;;;34.87;;
53273;SDS011;39163;52.696;6.758;2022-12-16T04:28:45;73.93;;;37.80;;
53273;SDS011;39163;52.696;6.758;2022-12-16T04:31:11;73.70;;;36.90;;
53273;SDS011;39163;52.696;6.758;2022-12-16T04:33:36;74.77;;;36.90;;
53273;SDS011;39163;52.696;6.758;2022-12-16T04:36:21;74.33;;;36.93;;
53273;SDS011;39163;52.696;6.758;2022-12-16T04:39:06;72.80;;;36.53;;
53273;SDS011;39163;52.696;6.758;2022-12-16T04:41:53;80.20;;;36.23;;
53273;SDS011;39163;52.696;6.758;2022-12-16T04:44:37;72.17;;;35.00;;
53273;SDS011;39163;52.696;6.758;2022-12-16T04:47:22;68.23;;;35.93;;
53273;SDS011;39163;52.696;6.758;2022-12-16T04:50:07;68.67;;;33.80;;
53273;SDS011;39163;52.696;6.758;2022-12-16T04:52:51;67.23;;;33.07;;
53273;SDS011;39163;52.696;6.758;2022-12-16T04:55:36;68.30;;;35.30;;
53273;SDS011;39163;52.696;6.758;2022-12-16T04:58:21;69.73;;;35.83;;
53273;SDS011;39163;52.696;6.758;2022-12-16T05:01:06;68.70;;;35.53;;
53273;SDS011;39163;52.696;6.758;2022-12-16T05:03:50;65.87;;;33.33;;
53273;SDS011;39163;52.696;6.758;2022-12-16T05:06:34;70.70;;;36.87;;
53273;SDS011;39163;52.696;6.758;2022-12-16T05:09:19;70.53;;;34.60;;
53273;SDS011;39163;52.696;6.758;2022-12-16T05:12:09;70.60;;;36.07;;
53273;SDS011;39163;52.696;6.758;2022-12-16T05:15:13;65.78;;;32.58;;
53273;SDS011;39163;52.696;6.758;2022-12-16T05:17:57;64.18;;;32.80;;
53273;SDS011;39163;52.696;6.758;2022-12-16T05:20:42;63.37;;;34.77;;
53273;SDS011;39163;52.696;6.758;2022-12-16T05:26:10;64.65;;;32.70;;
53273;SDS011;39163;52.696;6.758;2022-12-16T05:28:54;60.07;;;31.67;;
53273;SDS011;39163;52.696;6.758;2022-12-16T05:31:39;61.07;;;33.03;;
53273;SDS011;39163;52.696;6.758;2022-12-16T05:34:23;62.67;;;32.83;;
53273;SDS011;39163;52.696;6.758;2022-12-16T05:37:07;64.80;;;34.70;;
53273;SDS011;39163;52.696;6.758;2022-12-16T05:39:52;57.97;;;33.23;;
53273;SDS011;39163;52.696;6.758;2022-12-16T05:42:36;59.70;;;32.97;;
53273;SDS011;39163;52.696;6.758;2022-12-16T05:45:21;66.23;;;32.70;;
53273;SDS011;39163;52.696;6.758;2022-12-16T05:48:05;65.80;;;31.93;;
53273;SDS011;39163;52.696;6.758;2022-12-16T05:50:49;63.97;;;33.07;;
53273;SDS011;39163;52.696;6.758;2022-12-16T05:53:34;61.23;;;32.03;;
53273;SDS011;39163;52.696;6.758;2022-12-16T05:56:18;64.43;;;32.63;;
53273;SDS011;39163;52.696;6.758;2022-12-16T05:59:02;61.63;;;33.73;;
53273;SDS011;39163;52.696;6.758;2022-12-16T06:01:47;60.17;;;31.63;;
53273;SDS011;39163;52.696;6.758;2022-12-16T06:04:31;60.70;;;32.97;;
53273;SDS011;39163;52.696;6.758;2022-12-16T06:07:15;61.03;;;31.73;;
53273;SDS011;39163;52.696;6.758;2022-12-16T06:12:47;54.50;;;30.67;;
53273;SDS011;39163;52.696;6.758;2022-12-16T06:15:31;63.60;;;32.17;;
53273;SDS011;39163;52.696;6.758;2022-12-16T06:18:15;60.93;;;30.77;;
53273;SDS011;39163;52.696;6.758;2022-12-16T06:24:03;56.73;;;29.80;;
53273;SDS011;39163;52.696;6.758;2022-12-16T06:26:48;57.00;;;30.53;;
53273;SDS011;39163;52.696;6.758;2022-12-16T06:29:32;55.50;;;30.17;;
53273;SDS011;39163;52.696;6.758;2022-12-16T06:32:16;57.13;;;30.80;;
53273;SDS011;39163;52.696;6.758;2022-12-16T06:35:00;52.60;;;30.47;;
53273;SDS011;39163;52.696;6.758;2022-12-16T06:37:47;54.23;;;30.87;;
53273;SDS011;39163;52.696;6.758;2022-12-16T06:40:36;53.07;;;29.17;;
53273;SDS011;39163;52.696;6.758;2022-12-16T06:43:23;56.73;;;29.07;;
53273;SDS011;39163;52.696;6.758;2022-12-16T06:46:15;52.67;;;27.67;;
53273;SDS011;39163;52.696;6.758;2022-12-16T06:48:59;55.73;;;28.67;;
53273;SDS011;39163;52.696;6.758;2022-12-16T06:51:44;50.43;;;26.47;;
53273;SDS011;39163;52.696;6.758;2022-12-16T06:54:28;53.80;;;26.90;;
53273;SDS011;39163;52.696;6.758;2022-12-16T06:57:12;47.97;;;27.13;;
53273;SDS011;39163;52.696;6.758;2022-12-16T07:02:41;44.33;;;23.60;;
53273;SDS011;39163;52.696;6.758;2022-12-16T07:05:25;41.77;;;23.47;;
53273;SDS011;39163;52.696;6.758;2022-12-16T07:08:10;43.97;;;23.90;;
53273;SDS011;39163;52.696;6.758;2022-12-16T07:13:38;43.20;;;23.00;;
53273;SDS011;39163;52.696;6.758;2022-12-16T07:16:22;45.67;;;24.73;;
53273;SDS011;39163;52.696;6.758;2022-12-16T07:19:06;44.97;;;25.07;;
53273;SDS011;39163;52.696;6.758;2022-12-16T07:21:51;47.33;;;24.60;;
53273;SDS011;39163;52.696;6.758;2022-12-16T07:24:35;42.93;;;23.93;;
53273;SDS011;39163;52.696;6.758;2022-12-16T07:27:20;34.17;;;21.00;;
53273;SDS011;39163;52.696;6.758;2022-12-16T07:30:04;43.03;;;20.93;;
53273;SDS011;39163;52.696;6.758;2022-12-16T07:32:49;33.83;;;20.57;;
53273;SDS011;39163;52.696;6.758;2022-12-16T07:35:34;35.87;;;21.23;;
53273;SDS011;39163;52.696;6.758;2022-12-16T07:38:18;40.10;;;23.23;;
53273;SDS011;39163;52.696;6.758;2022-12-16T07:41:02;39.67;;;22.03;;
53273;SDS011;39163;52.696;6.758;2022-12-16T07:43:46;41.77;;;23.33;;
53273;SDS011;39163;52.696;6.758;2022-12-16T07:49:14;49.03;;;22.33;;
53273;SDS011;39163;52.696;6.758;2022-12-16T07:51:59;44.47;;;24.23;;
53273;SDS011;39163;52.696;6.758;2022-12-16T07:54:43;45.37;;;23.77;;
53273;SDS011;39163;52.696;6.758;2022-12-16T07:57:28;47.17;;;23.93;;
53273;SDS011;39163;52.696;6.758;2022-12-16T08:00:12;51.57;;;25.13;;
53273;SDS011;39163;52.696;6.758;2022-12-16T08:02:57;70.10;;;35.37;;
53273;SDS011;39163;52.696;6.758;2022-12-16T08:05:43;67.17;;;33.93;;
53273;SDS011;39163;52.696;6.758;2022-12-16T08:08:31;70.57;;;33.53;;
53273;SDS011;39163;52.696;6.758;2022-12-16T08:11:15;76.03;;;35.10;;
53273;SDS011;39163;52.696;6.758;2022-12-16T08:16:47;66.93;;;33.37;;
53273;SDS011;39163;52.696;6.758;2022-12-16T08:19:41;78.13;;;33.00;;
53273;SDS011;39163;52.696;6.758;2022-12-16T08:22:35;75.20;;;35.87;;
53273;SDS011;39163;52.696;6.758;2022-12-16T08:25:21;73.45;;;35.50;;
53273;SDS011;39163;52.696;6.758;2022-12-16T08:28:05;74.43;;;34.87;;
53273;SDS011;39163;52.696;6.758;2022-12-16T08:33:37;65.68;;;31.85;;
53273;SDS011;39163;52.696;6.758;2022-12-16T08:36:21;72.07;;;33.47;;
53273;SDS011;39163;52.696;6.758;2022-12-16T08:39:05;82.87;;;36.10;;
53273;SDS011;39163;52.696;6.758;2022-12-16T08:41:31;66.63;;;35.13;;
53273;SDS011;39163;52.696;6.758;2022-12-16T08:44:15;72.77;;;36.07;;
53273;SDS011;39163;52.696;6.758;2022-12-16T08:47:00;74.33;;;35.07;;
53273;SDS011;39163;52.696;6.758;2022-12-16T08:49:44;81.43;;;34.70;;
53273;SDS011;39163;52.696;6.758;2022-12-16T08:52:28;70.03;;;35.73;;
53273;SDS011;39163;52.696;6.758;2022-12-16T08:55:13;71.53;;;34.63;;
53273;SDS011;39163;52.696;6.758;2022-12-16T08:57:57;71.57;;;35.90;;
53273;SDS011;39163;52.696;6.758;2022-12-16T09:00:41;73.43;;;33.60;;
53273;SDS011;39163;52.696;6.758;2022-12-16T09:03:26;69.40;;;36.07;;
53273;SDS011;39163;52.696;6.758;2022-12-16T09:06:10;66.50;;;32.77;;
53273;SDS011;39163;52.696;6.758;2022-12-16T09:08:55;66.00;;;33.60;;
53273;SDS011;39163;52.696;6.758;2022-12-16T09:11:54;70.03;;;33.43;;
53273;SDS011;39163;52.696;6.758;2022-12-16T09:14:38;69.93;;;34.27;;
53273;SDS011;39163;52.696;6.758;2022-12-16T09:17:22;71.47;;;35.00;;
53273;SDS011;39163;52.696;6.758;2022-12-16T09:20:07;76.07;;;34.63;;
53273;SDS011;39163;52.696;6.758;2022-12-16T09:22:51;74.60;;;34.57;;
53273;SDS011;39163;52.696;6.758;2022-12-16T09:25:36;62.30;;;33.53;;
53273;SDS011;39163;52.696;6.758;2022-12-16T09:28:20;74.57;;;34.00;;
53273;SDS011;39163;52.696;6.758;2022-12-16T09:31:04;69.30;;;32.97;;
53273;SDS011;39163;52.696;6.758;2022-12-16T09:36:36;67.55;;;31.05;;
53273;SDS011;39163;52.696;6.758;2022-12-16T09:39:20;71.00;;;32.30;;
53273;SDS011;39163;52.696;6.758;2022-12-16T09:50:37;76.47;;;36.03;;
53273;SDS011;39163;52.696;6.758;2022-12-16T09:53:24;84.43;;;38.83;;
53273;SDS011;39163;52.696;6.758;2022-12-16T09:56:15;89.20;;;39.07;;
53273;SDS011;39163;52.696;6.758;2022-12-16T09:59:02;92.87;;;38.83;;
53273;SDS011;39163;52.696;6.758;2022-12-16T10:01:52;97.63;;;38.17;;
53273;SDS011;39163;52.696;6.758;2022-12-16T10:04:37;101.47;;;41.93;;
53273;SDS011;39163;52.696;6.758;2022-12-16T10:07:22;92.83;;;40.93;;
53273;SDS011;39163;52.696;6.758;2022-12-16T10:10:15;96.23;;;38.53;;
53273;SDS011;39163;52.696;6.758;2022-12-16T10:22:30;83.93;;;39.67;;
53273;SDS011;39163;52.696;6.758;2022-12-16T10:25:22;105.07;;;40.57;;
53273;SDS011;39163;52.696;6.758;2022-12-16T10:31:51;94.57;;;39.43;;
53273;SDS011;39163;52.696;6.758;2022-12-16T10:34:35;91.47;;;39.73;;
53273;SDS011;39163;52.696;6.758;2022-12-16T10:37:32;90.07;;;40.50;;
53273;SDS011;39163;52.696;6.758;2022-12-16T10:40:20;86.17;;;38.93;;
53273;SDS011;39163;52.696;6.758;2022-12-16T10:43:15;84.47;;;38.33;;
53273;SDS011;39163;52.696;6.758;2022-12-16T10:46:15;90.37;;;39.03;;
53273;SDS011;39163;52.696;6.758;2022-12-16T10:49:03;87.90;;;37.93;;
53273;SDS011;39163;52.696;6.758;2022-12-16T10:51:47;99.33;;;42.40;;
53273;SDS011;39163;52.696;6.758;2022-12-16T10:54:34;89.47;;;38.47;;
53273;SDS011;39163;52.696;6.758;2022-12-16T10:57:30;85.43;;;39.73;;
53273;SDS011;39163;52.696;6.758;2022-12-16T11:00:16;97.30;;;40.20;;
53273;SDS011;39163;52.696;6.758;2022-12-16T11:03:19;96.20;;;41.77;;
53273;SDS011;39163;52.696;6.758;2022-12-16T11:06:07;100.80;;;42.23;;
53273;SDS011;39163;52.696;6.758;2022-12-16T11:08:52;94.87;;;41.40;;
53273;SDS011;39163;52.696;6.758;2022-12-16T11:11:36;94.33;;;42.17;;
53273;SDS011;39163;52.696;6.758;2022-12-16T11:23:05;95.83;;;41.40;;
53273;SDS011;39163;52.696;6.758;2022-12-16T11:26:02;105.63;;;41.47;;
53273;SDS011;39163;52.696;6.758;2022-12-16T11:29:05;103.03;;;41.33;;
53273;SDS011;39163;52.696;6.758;2022-12-16T11:31:57;113.70;;;42.57;;
53273;SDS011;39163;52.696;6.758;2022-12-16T11:34:43;111.00;;;43.07;;
53273;SDS011;39163;52.696;6.758;2022-12-16T11:37:31;101.37;;;42.23;;
53273;SDS011;39163;52.696;6.758;2022-12-16T11:40:16;106.57;;;43.97;;
53273;SDS011;39163;52.696;6.758;2022-12-16T11:43:03;105.67;;;42.37;;
53273;SDS011;39163;52.696;6.758;2022-12-16T11:45:48;100.47;;;42.53;;
53273;SDS011;39163;52.696;6.758;2022-12-16T11:48:37;94.40;;;41.53;;
53273;SDS011;39163;52.696;6.758;2022-12-16T11:51:27;92.67;;;40.17;;
53273;SDS011;39163;52.696;6.758;2022-12-16T11:54:35;92.43;;;41.30;;
53273;SDS011;39163;52.696;6.758;2022-12-16T11:57:22;89.47;;;39.93;;
53273;SDS011;39163;52.696;6.758;2022-12-16T12:00:12;89.07;;;39.50;;
53273;SDS011;39163;52.696;6.758;2022-12-16T12:03:08;97.43;;;39.77;;
53273;SDS011;39163;52.696;6.758;2022-12-16T12:21:30;96.33;;;39.83;;
53273;SDS011;39163;52.696;6.758;2022-12-16T12:27:50;89.97;;;36.57;;
53273;SDS011;39163;52.696;6.758;2022-12-16T12:31:16;87.17;;;37.83;;
53273;SDS011;39163;52.696;6.758;2022-12-16T12:34:21;94.40;;;40.93;;
53273;SDS011;39163;52.696;6.758;2022-12-16T12:42:34;90.47;;;42.67;;
53273;SDS011;39163;52.696;6.758;2022-12-16T12:45:33;85.17;;;38.17;;
53273;SDS011;39163;52.696;6.758;2022-12-16T12:57:41;83.63;;;36.43;;
53273;SDS011;39163;52.696;6.758;2022-12-16T13:00:29;85.57;;;37.70;;
53273;SDS011;39163;52.696;6.758;2022-12-16T13:03:37;77.73;;;36.77;;
53273;SDS011;39163;52.696;6.758;2022-12-16T13:06:28;89.90;;;37.63;;
53273;SDS011;39163;52.696;6.758;2022-12-16T13:09:32;79.67;;;38.57;;
53273;SDS011;39163;52.696;6.758;2022-12-16T13:12:20;81.50;;;37.53;;
53273;SDS011;39163;52.696;6.758;2022-12-16T13:20:47;79.13;;;36.63;;
53273;SDS011;39163;52.696;6.758;2022-12-16T13:23:36;73.70;;;37.07;;
53273;SDS011;39163;52.696;6.758;2022-12-16T13:26:22;83.57;;;36.50;;
53273;SDS011;39163;52.696;6.758;2022-12-16T13:29:22;82.20;;;38.17;;
53273;SDS011;39163;52.696;6.758;2022-12-16T13:32:18;84.70;;;37.17;;
53273;SDS011;39163;52.696;6.758;2022-12-16T13:50:35;89.43;;;38.47;;
53273;SDS011;39163;52.696;6.758;2022-12-16T13:53:21;83.40;;;37.53;;
53273;SDS011;39163;52.696;6.758;2022-12-16T13:56:15;88.80;;;39.27;;
53273;SDS011;39163;52.696;6.758;2022-12-16T13:59:23;101.87;;;40.53;;
53273;SDS011;39163;52.696;6.758;2022-12-16T14:05:29;91.28;;;40.10;;
53273;SDS011;39163;52.696;6.758;2022-12-16T14:08:19;92.50;;;41.03;;
53273;SDS011;39163;52.696;6.758;2022-12-16T14:11:11;95.80;;;38.50;;
53273;SDS011;39163;52.696;6.758;2022-12-16T14:14:04;89.77;;;39.07;;
53273;SDS011;39163;52.696;6.758;2022-12-16T14:16:57;86.60;;;38.23;;
53273;SDS011;39163;52.696;6.758;2022-12-16T14:23:28;93.33;;;39.73;;
53273;SDS011;39163;52.696;6.758;2022-12-16T14:26:19;90.30;;;40.70;;
53273;SDS011;39163;52.696;6.758;2022-12-16T14:29:03;97.43;;;40.07;;
53273;SDS011;39163;52.696;6.758;2022-12-16T14:35:25;107.00;;;43.83;;
53273;SDS011;39163;52.696;6.758;2022-12-16T14:38:24;106.43;;;39.80;;
53273;SDS011;39163;52.696;6.758;2022-12-16T14:41:14;97.23;;;40.53;;
53273;SDS011;39163;52.696;6.758;2022-12-16T14:44:02;107.73;;;43.63;;
53273;SDS011;39163;52.696;6.758;2022-12-16T14:46:58;115.00;;;43.27;;
53273;SDS011;39163;52.696;6.758;2022-12-16T14:49:50;103.43;;;41.23;;
53273;SDS011;39163;52.696;6.758;2022-12-16T14:52:35;103.93;;;41.07;;
53273;SDS011;39163;52.696;6.758;2022-12-16T14:55:26;97.47;;;39.97;;
53273;SDS011;39163;52.696;6.758;2022-12-16T14:58:15;99.03;;;40.97;;
53273;SDS011;39163;52.696;6.758;2022-12-16T15:04:05;85.23;;;37.80;;
53273;SDS011;39163;52.696;6.758;2022-12-16T15:06:56;101.77;;;40.03;;
53273;SDS011;39163;52.696;6.758;2022-12-16T15:09:47;101.07;;;38.80;;
53273;SDS011;39163;52.696;6.758;2022-12-16T15:12:36;100.13;;;43.28;;
53273;SDS011;39163;52.696;6.758;2022-12-16T15:15:25;111.17;;;43.00;;
53273;SDS011;39163;52.696;6.758;2022-12-16T15:18:20;115.80;;;45.73;;
53273;SDS011;39163;52.696;6.758;2022-12-16T15:21:09;114.73;;;44.60;;
53273;SDS011;39163;52.696;6.758;2022-12-16T15:23:53;155.13;;;77.70;;
53273;SDS011;39163;52.696;6.758;2022-12-16T15:26:39;164.97;;;82.07;;
53273;SDS011;39163;52.696;6.758;2022-12-16T15:29:27;114.10;;;46.07;;
53273;SDS011;39163;52.696;6.758;2022-12-16T15:41:02;116.70;;;46.30;;
53273;SDS011;39163;52.696;6.758;2022-12-16T15:43:48;110.77;;;43.43;;
53273;SDS011;39163;52.696;6.758;2022-12-16T15:46:36;117.70;;;43.60;;
53273;SDS011;39163;52.696;6.758;2022-12-16T15:55:41;101.67;;;39.90;;
53273;SDS011;39163;52.696;6.758;2022-12-16T16:01:16;152.17;;;70.23;;
53273;SDS011;39163;52.696;6.758;2022-12-16T16:07:18;98.40;;;39.20;;
53273;SDS011;39163;52.696;6.758;2022-12-16T16:10:20;106.97;;;44.20;;
53273;SDS011;39163;52.696;6.758;2022-12-16T16:13:07;96.67;;;38.73;;
53273;SDS011;39163;52.696;6.758;2022-12-16T16:15:52;114.10;;;44.83;;
53273;SDS011;39163;52.696;6.758;2022-12-16T16:18:36;93.47;;;36.73;;
53273;SDS011;39163;52.696;6.758;2022-12-16T16:21:21;100.37;;;36.70;;
53273;SDS011;39163;52.696;6.758;2022-12-16T16:24:06;97.70;;;35.93;;
53273;SDS011;39163;52.696;6.758;2022-12-16T16:26:51;88.83;;;32.10;;
53273;SDS011;39163;52.696;6.758;2022-12-16T16:29:36;87.77;;;31.27;;
53273;SDS011;39163;52.696;6.758;2022-12-16T16:32:20;82.63;;;31.80;;
53273;SDS011;39163;52.696;6.758;2022-12-16T16:35:04;97.85;;;33.50;;
53273;SDS011;39163;52.696;6.758;2022-12-16T16:37:49;95.10;;;32.00;;
53273;SDS011;39163;52.696;6.758;2022-12-16T16:40:36;94.73;;;34.00;;
53273;SDS011;39163;52.696;6.758;2022-12-16T16:43:24;91.90;;;32.90;;
53273;SDS011;39163;52.696;6.758;2022-12-16T16:46:55;81.87;;;32.33;;
53273;SDS011;39163;52.696;6.758;2022-12-16T16:49:23;92.30;;;33.60;;
53273;SDS011;39163;52.696;6.758;2022-12-16T16:52:12;92.90;;;31.03;;
53273;SDS011;39163;52.696;6.758;2022-12-16T16:54:58;92.13;;;30.87;;
53273;SDS011;39163;52.696;6.758;2022-12-16T16:57:43;90.23;;;35.77;;
53273;SDS011;39163;52.696;6.758;2022-12-16T17:00:27;88.37;;;32.93;;
53273;SDS011;39163;52.696;6.758;2022-12-16T17:03:13;94.53;;;32.27;;
53273;SDS011;39163;52.696;6.758;2022-12-16T17:05:57;90.10;;;33.00;;
53273;SDS011;39163;52.696;6.758;2022-12-16T17:08:41;95.37;;;34.80;;
53273;SDS011;39163;52.696;6.758;2022-12-16T17:11:26;94.83;;;34.60;;
53273;SDS011;39163;52.696;6.758;2022-12-16T17:14:19;102.13;;;37.53;;
53273;SDS011;39163;52.696;6.758;2022-12-16T17:17:04;120.80;;;39.93;;
53273;SDS011;39163;52.696;6.758;2022-12-16T17:19:51;112.63;;;38.80;;
53273;SDS011;39163;52.696;6.758;2022-12-16T17:22:35;116.33;;;38.57;;
53273;SDS011;39163;52.696;6.758;2022-12-16T17:25:20;117.27;;;37.83;;
53273;SDS011;39163;52.696;6.758;2022-12-16T17:28:05;119.43;;;38.53;;
53273;SDS011;39163;52.696;6.758;2022-12-16T17:30:49;115.73;;;38.23;;
53273;SDS011;39163;52.696;6.758;2022-12-16T17:33:33;117.30;;;40.83;;
53273;SDS011;39163;52.696;6.758;2022-12-16T17:36:23;121.93;;;40.43;;
53273;SDS011;39163;52.696;6.758;2022-12-16T17:39:08;132.83;;;41.07;;
53273;SDS011;39163;52.696;6.758;2022-12-16T17:41:53;124.43;;;40.87;;
53273;SDS011;39163;52.696;6.758;2022-12-16T17:44:38;117.10;;;42.70;;
53273;SDS011;39163;52.696;6.758;2022-12-16T17:47:22;150.87;;;43.33;;
53273;SDS011;39163;52.696;6.758;2022-12-16T17:50:06;137.00;;;43.07;;
53273;SDS011;39163;52.696;6.758;2022-12-16T17:52:54;129.73;;;47.07;;
53273;SDS011;39163;52.696;6.758;2022-12-16T17:55:39;130.00;;;47.90;;
53273;SDS011;39163;52.696;6.758;2022-12-16T17:58:31;135.70;;;43.50;;
53273;SDS011;39163;52.696;6.758;2022-12-16T18:01:37;127.90;;;43.93;;
53273;SDS011;39163;52.696;6.758;2022-12-16T18:04:21;127.70;;;39.97;;
53273;SDS011;39163;52.696;6.758;2022-12-16T18:07:09;116.77;;;41.57;;
53273;SDS011;39163;52.696;6.758;2022-12-16T18:09:53;133.20;;;43.73;;
53273;SDS011;39163;52.696;6.758;2022-12-16T18:12:40;108.37;;;38.97;;
53273;SDS011;39163;52.696;6.758;2022-12-16T18:15:25;117.07;;;39.37;;
53273;SDS011;39163;52.696;6.758;2022-12-16T18:20:53;135.77;;;38.75;;
53273;SDS011;39163;52.696;6.758;2022-12-16T18:23:37;120.43;;;38.23;;
53273;SDS011;39163;52.696;6.758;2022-12-16T18:29:06;117.45;;;35.85;;
53273;SDS011;39163;52.696;6.758;2022-12-16T18:31:50;124.13;;;44.10;;
53273;SDS011;39163;52.696;6.758;2022-12-16T18:34:34;141.90;;;56.00;;
53273;SDS011;39163;52.696;6.758;2022-12-16T18:37:29;114.60;;;38.15;;
53273;SDS011;39163;52.696;6.758;2022-12-16T18:43:13;103.63;;;36.27;;
53273;SDS011;39163;52.696;6.758;2022-12-16T18:48:52;107.90;;;38.17;;
53273;SDS011;39163;52.696;6.758;2022-12-16T18:51:53;120.03;;;37.83;;
53273;SDS011;39163;52.696;6.758;2022-12-16T18:54:41;117.77;;;36.17;;
53273;SDS011;39163;52.696;6.758;2022-12-16T19:00:09;119.78;;;39.95;;
53273;SDS011;39163;52.696;6.758;2022-12-16T19:02:56;116.20;;;39.13;;
53273;SDS011;39163;52.696;6.758;2022-12-16T19:05:40;122.53;;;41.63;;